Time;durP1;ratioP1;P1;durP2;ratioP2;P2;SDS_P1;SDS_P2;PMS_P1;PMS_P2;Temp;Humidity;BMP_temperature;BMP_pressure;BME280_temperature;BME280_humidity;BME280_pressure;Samples;Min_cycle;Max_cycle;Signal;HPM_P1;HPM_P2
2021/11/09 00:45:46;;;;;;;;;;;;;;;;;;;;;
2021/11/09 00:49:42;;;;;;;;;;;;;;;;;;;;;
2021/11/09 01:31:47;;;;;;;;;;;;;;;;;;;;;
2021/11/09 02:08:21;;;;;;;10.82;4.18;;;7.90;98.80;;;;;;5030368;28;20044;-83
2021/11/09 02:15:45;;;;;;;13.40;4.90;;;7.90;98.90;;;;;;4970531;28;20051;-83
2021/11/09 02:37:32;;;;;;;;;;;;;;;;;;;;;
2021/11/09 03:12:02;;;;;;;13.98;4.97;;;7.50;99.20;;;;;;4804019;29;20484;-83
2021/11/09 03:45:45;;;;;;;;;;;;;;;;;;;;;
2021/11/09 04:07:04;;;;;;;15.15;4.82;;;7.20;99.00;;;;;;5219409;23;20064;-82
2021/11/09 04:09:59;;;;;;;10.73;4.35;;;7.10;99.30;;;;;;5018581;28;20041;-82
2021/11/09 04:14:50;;;;;;;11.30;5.05;;;7.10;99.40;;;;;;5011039;28;20473;-83
2021/11/09 04:17:32;;;;;;;12.27;4.55;;;7.10;99.50;;;;;;5017880;28;20111;-82
2021/11/09 04:20:07;;;;;;;11.93;4.75;;;7.10;99.50;;;;;;5017487;28;20041;-82
2021/11/09 04:23:31;;;;;;;13.50;4.93;;;7.10;99.60;;;;;;5013126;28;20048;-82
2021/11/09 04:50:45;;;;;;;16.30;5.35;;;7.00;99.60;;;;;;5017884;28;20132;-83
2021/11/09 05:09:18;;;;;;;23.10;6.68;;;6.90;99.60;;;;;;5001750;28;20523;-83
2021/11/09 05:11:44;;;;;;;16.38;5.80;;;6.90;99.60;;;;;;5008520;28;20042;-82
2021/11/09 05:14:12;;;;;;;21.25;6.53;;;6.80;99.60;;;;;;5017696;28;20074;-83
2021/11/09 05:16:40;;;;;;;20.75;6.97;;;6.80;99.60;;;;;;5016734;28;20052;-82
2021/11/09 05:19:07;;;;;;;19.15;6.80;;;6.80;99.60;;;;;;5016519;28;20485;-83
2021/11/09 05:21:33;;;;;;;28.98;7.40;;;6.80;99.50;;;;;;5017018;28;20052;-83
2021/11/09 05:24:00;;;;;;;16.52;6.30;;;6.80;99.40;;;;;;5015398;28;20073;-82
2021/11/09 05:26:27;;;;;;;23.85;6.80;;;6.80;99.50;;;;;;4998406;28;20129;-82
2021/11/09 05:28:52;;;;;;;16.58;6.20;;;6.80;99.50;;;;;;5006932;28;20064;-82
2021/11/09 05:31:19;;;;;;;18.75;6.88;;;6.70;99.40;;;;;;5016517;28;20037;-83
2021/11/09 05:33:46;;;;;;;19.48;6.55;;;6.70;99.50;;;;;;5000826;28;20037;-83
2021/11/09 05:36:12;;;;;;;17.60;6.60;;;6.70;99.40;;;;;;5016374;28;20054;-82
2021/11/09 05:38:50;;;;;;;19.92;6.25;;;6.70;99.50;;;;;;5015249;28;20056;-83
2021/11/09 05:41:18;;;;;;;22.02;7.28;;;6.70;99.50;;;;;;4996000;28;20563;-84
2021/11/09 05:43:44;;;;;;;21.55;6.97;;;6.70;99.40;;;;;;4996444;28;20045;-84
2021/11/09 05:46:10;;;;;;;19.65;6.90;;;6.70;99.60;;;;;;4997137;28;20042;-84
2021/11/09 05:48:36;;;;;;;19.02;6.30;;;6.70;99.60;;;;;;5008219;28;20153;-87
2021/11/09 05:51:07;;;;;;;20.52;7.03;;;6.70;99.60;;;;;;5015694;28;20041;-86
2021/11/09 05:53:36;;;;;;;25.92;7.65;;;6.70;99.50;;;;;;5017208;28;20111;-84
2021/11/09 05:56:03;;;;;;;26.35;8.35;;;6.70;99.50;;;;;;5013208;28;20049;-84
2021/11/09 05:58:29;;;;;;;19.10;6.40;;;6.70;99.50;;;;;;5016527;28;20084;-85
2021/11/09 06:00:55;;;;;;;18.90;7.07;;;6.70;99.40;;;;;;5016993;28;20436;-86
2021/11/09 06:03:23;;;;;;;21.55;7.68;;;6.60;99.50;;;;;;5013199;28;20033;-85
2021/11/09 06:05:56;;;;;;;26.23;8.38;;;6.70;99.60;;;;;;5436818;23;20393;-86
2021/11/09 06:08:23;;;;;;;21.50;7.32;;;6.60;99.50;;;;;;5124155;23;20927;-86
2021/11/09 06:10:49;;;;;;;27.48;8.23;;;6.60;99.50;;;;;;5013879;28;20042;-85
2021/11/09 06:13:17;;;;;;;28.55;8.68;;;6.60;99.50;;;;;;5013043;28;20053;-85
2021/11/09 06:15:43;;;;;;;26.10;9.32;;;6.60;99.40;;;;;;5013627;28;20049;-85
2021/11/09 06:18:09;;;;;;;30.85;9.15;;;6.60;99.30;;;;;;5012750;28;20045;-85
2021/11/09 06:20:35;;;;;;;24.02;8.05;;;6.50;99.30;;;;;;5013525;28;20054;-85
2021/11/09 06:23:01;;;;;;;21.33;7.78;;;6.50;99.30;;;;;;5013397;28;20057;-85
2021/11/09 06:25:26;;;;;;;22.38;8.30;;;6.50;99.30;;;;;;5012713;28;20500;-85
2021/11/09 06:27:52;;;;;;;28.27;8.90;;;6.50;99.40;;;;;;5013728;28;20501;-85
2021/11/09 06:30:19;;;;;;;22.83;8.57;;;6.50;99.50;;;;;;5013173;28;20049;-86
2021/11/09 06:32:46;;;;;;;24.38;8.45;;;6.50;99.50;;;;;;5012106;28;20132;-86
2021/11/09 06:35:12;;;;;;;22.73;8.15;;;6.50;99.50;;;;;;5013049;28;20045;-85
2021/11/09 06:37:37;;;;;;;24.50;9.65;;;6.50;99.50;;;;;;5013803;28;20378;-86
2021/11/09 06:40:08;;;;;;;24.13;9.55;;;6.50;99.50;;;;;;5012419;28;20089;-85
2021/11/09 06:42:36;;;;;;;27.50;8.70;;;6.50;99.50;;;;;;5013188;28;20497;-85
2021/11/09 06:45:04;;;;;;;29.55;8.80;;;6.50;99.50;;;;;;5012742;28;20110;-85
2021/11/09 06:47:30;;;;;;;24.33;8.35;;;6.50;99.50;;;;;;5012173;28;20137;-85
2021/11/09 06:49:59;;;;;;;25.83;8.27;;;6.40;99.40;;;;;;5013195;28;20073;-84
2021/11/09 06:52:26;;;;;;;30.25;9.30;;;6.50;99.50;;;;;;5013345;28;20088;-86
2021/11/09 06:54:52;;;;;;;22.70;9.10;;;6.50;99.40;;;;;;5012453;28;20467;-85
2021/11/09 06:57:18;;;;;;;28.00;8.70;;;6.40;99.40;;;;;;5013988;28;20049;-85
2021/11/09 06:59:46;;;;;;;24.02;8.73;;;6.40;99.30;;;;;;5015066;28;20045;-85
2021/11/09 07:02:12;;;;;;;18.98;7.65;;;6.40;99.30;;;;;;5011987;28;20045;-85
2021/11/09 07:04:38;;;;;;;26.95;8.57;;;6.40;99.40;;;;;;5012740;28;20120;-85
2021/11/09 07:07:07;;;;;;;25.85;8.52;;;6.40;99.40;;;;;;5012744;28;20046;-86
2021/11/09 07:09:38;;;;;;;23.27;8.93;;;6.40;99.40;;;;;;5011683;28;20058;-85
2021/11/09 07:12:09;;;;;;;23.55;8.75;;;6.30;99.30;;;;;;5012486;28;20053;-85
2021/11/09 07:14:41;;;;;;;22.13;7.95;;;6.40;99.30;;;;;;5012224;28;20096;-85
2021/11/09 07:17:07;;;;;;;21.00;7.97;;;6.40;99.40;;;;;;5012432;28;20042;-86
2021/11/09 07:19:35;;;;;;;24.80;8.82;;;6.40;99.40;;;;;;5012201;28;20103;-86
2021/11/09 07:22:01;;;;;;;21.52;8.55;;;6.40;99.40;;;;;;5011569;28;20063;-85
2021/11/09 07:24:26;;;;;;;28.42;9.10;;;6.30;99.30;;;;;;5161728;23;20422;-86
2021/11/09 07:26:52;;;;;;;28.73;9.50;;;6.30;99.40;;;;;;4992541;28;20106;-85
2021/11/09 07:29:18;;;;;;;24.48;9.10;;;6.30;99.40;;;;;;4992052;28;20492;-85
2021/11/09 07:58:31;;;;;;;30.23;11.07;;;6.40;99.40;;;;;;4953787;29;20054;-87
2021/11/09 08:01:07;;;;;;;25.98;10.57;;;6.40;99.40;;;;;;4937457;29;20198;-85
2021/11/09 08:03:40;;;;;;;29.13;10.27;;;6.50;99.40;;;;;;4937571;29;20051;-84
2021/11/09 08:08:38;;;;;;;23.63;10.07;;;6.50;99.40;;;;;;4938125;29;20082;-85
2021/11/09 08:11:04;;;;;;;31.17;11.05;;;6.60;99.50;;;;;;4937339;29;20047;-85
2021/11/09 08:13:30;;;;;;;29.60;10.07;;;6.60;99.50;;;;;;4937912;29;20050;-86
2021/11/09 08:15:56;;;;;;;32.38;10.82;;;6.70;99.50;;;;;;4940316;29;20036;-85
2021/11/09 08:18:22;;;;;;;32.22;10.07;;;6.70;99.50;;;;;;4940612;29;20117;-85
2021/11/09 08:20:48;;;;;;;29.52;11.02;;;6.70;99.50;;;;;;4941261;29;20047;-85
2021/11/09 08:23:13;;;;;;;35.60;11.77;;;6.70;99.50;;;;;;4948504;28;20130;-84
2021/11/09 08:25:39;;;;;;;25.92;10.73;;;6.80;99.50;;;;;;4958364;28;20053;-85
2021/11/09 08:28:05;;;;;;;27.52;11.70;;;6.80;99.50;;;;;;4960203;28;20042;-85
2021/11/09 08:30:31;;;;;;;28.95;11.10;;;6.80;99.50;;;;;;4960185;28;20035;-86
2021/11/09 08:32:59;;;;;;;28.13;11.32;;;6.90;99.50;;;;;;4959281;28;20137;-86
2021/11/09 08:35:26;;;;;;;30.58;10.95;;;6.90;99.50;;;;;;4960463;28;20401;-88
2021/11/09 08:37:53;;;;;;;26.70;11.27;;;7.00;99.50;;;;;;4960598;28;20170;-87
2021/11/09 08:40:21;;;;;;;25.08;10.90;;;7.00;99.50;;;;;;4959203;28;20054;-85
2021/11/09 08:42:53;;;;;;;31.65;12.20;;;7.10;99.60;;;;;;4960009;28;20059;-87
2021/11/09 08:45:35;;;;;;;33.72;11.15;;;7.10;99.50;;;;;;4959757;28;20380;-86
2021/11/09 08:48:13;;;;;;;30.10;11.45;;;7.10;99.40;;;;;;4959449;28;20054;-86
2021/11/09 08:50:39;;;;;;;34.25;11.30;;;7.20;99.40;;;;;;4958287;28;20134;-84
2021/11/09 08:53:13;;;;;;;32.95;11.65;;;7.20;99.40;;;;;;4939730;29;20174;-86
2021/11/09 09:00:59;;;;;;;26.95;11.57;;;7.30;99.40;;;;;;4940130;29;20062;-86
2021/11/09 09:01:41;;;;;;;30.38;11.88;;;7.40;99.40;;;;;;4939340;29;20419;-86
2021/11/09 09:04:16;;;;;;;24.50;10.90;;;7.40;99.30;;;;;;4940429;29;20055;-86
2021/11/09 09:06:43;;;;;;;27.83;11.38;;;7.50;99.30;;;;;;4940958;29;20090;-85
2021/11/09 09:09:09;;;;;;;30.38;11.80;;;7.50;99.30;;;;;;4939886;29;20054;-86
2021/11/09 09:11:35;;;;;;;37.08;10.95;;;7.60;99.30;;;;;;4940352;29;20043;-85
2021/11/09 09:14:02;;;;;;;33.70;11.20;;;7.60;99.20;;;;;;4944288;29;20039;-90
2021/11/09 09:16:29;;;;;;;25.75;10.52;;;7.70;99.50;;;;;;4940819;29;20093;-87
2021/11/09 09:18:55;;;;;;;34.70;11.88;;;7.70;99.20;;;;;;4941760;29;20043;-88
2021/11/09 09:21:32;;;;;;;34.35;11.68;;;7.80;99.10;;;;;;4958706;28;20403;-88
2021/11/09 09:24:03;;;;;;;34.58;11.30;;;7.80;99.10;;;;;;4959707;28;20043;-88
2021/11/09 09:26:36;;;;;;;31.63;12.60;;;7.90;99.10;;;;;;4958845;28;20077;-90
2021/11/09 09:32:07;;;;;;;49.53;23.35;;;8.00;99.00;;;;;;4960047;28;20054;-88
2021/11/09 09:56:46;;;;;;;25.42;9.57;;;8.60;98.50;;;;;;4955359;28;20117;-88
2021/11/09 09:59:11;;;;;;;33.38;9.80;;;8.70;98.80;;;;;;4959050;28;20045;-89
2021/11/09 10:01:42;;;;;;;29.35;10.23;;;8.80;98.40;;;;;;4959518;28;20055;-88
2021/11/09 10:04:38;;;;;;;31.80;9.80;;;8.80;98.30;;;;;;4958940;28;20051;-87
2021/11/09 10:07:05;;;;;;;27.15;8.90;;;9.00;98.10;;;;;;4958739;28;20501;-88
2021/11/09 10:09:35;;;;;;;26.05;9.13;;;9.00;98.20;;;;;;4958924;28;20093;-89
2021/11/09 10:12:21;;;;;;;27.27;9.13;;;9.00;98.10;;;;;;4958162;28;20039;-87
2021/11/09 10:14:50;;;;;;;30.70;9.60;;;9.10;97.90;;;;;;4940222;28;20045;-88
2021/11/09 10:17:25;;;;;;;26.63;8.55;;;9.20;98.00;;;;;;4938329;29;20359;-87
2021/11/09 10:19:53;;;;;;;29.52;9.48;;;9.20;97.80;;;;;;4939421;29;20146;-88
2021/11/09 10:22:28;;;;;;;25.95;9.38;;;9.30;97.80;;;;;;4939226;29;20098;-89
2021/11/09 10:25:03;;;;;;;27.05;9.80;;;9.20;97.80;;;;;;4938590;29;20070;-89
2021/11/09 10:27:31;;;;;;;33.55;10.13;;;9.30;97.70;;;;;;4939361;29;20078;-88
2021/11/09 10:29:58;;;;;;;31.30;10.73;;;9.30;97.70;;;;;;4939023;29;20078;-89
2021/11/09 10:32:28;;;;;;;31.70;10.55;;;9.30;97.70;;;;;;4937861;29;20083;-88
2021/11/09 10:34:57;;;;;;;27.38;9.45;;;9.40;97.80;;;;;;4940567;29;20168;-89
2021/11/09 10:37:26;;;;;;;29.75;10.05;;;9.40;97.70;;;;;;4939589;29;20052;-86
2021/11/09 10:39:54;;;;;;;32.42;10.18;;;9.50;97.60;;;;;;4936613;29;20047;-87
2021/11/09 10:42:23;;;;;;;31.27;10.00;;;9.50;97.50;;;;;;4943148;28;20134;-86
2021/11/09 10:45:02;;;;;;;29.80;9.60;;;9.50;97.50;;;;;;4958369;28;20054;-87
2021/11/09 10:47:31;;;;;;;31.70;9.75;;;9.60;97.40;;;;;;4919289;29;20092;-88
2021/11/09 10:50:02;;;;;;;29.63;8.95;;;9.60;97.40;;;;;;4928024;29;20073;-84
2021/11/09 10:52:36;;;;;;;35.90;9.80;;;9.60;97.40;;;;;;4938544;29;20082;-89
2021/11/09 11:06:21;;;;;;;30.23;8.40;;;9.80;97.40;;;;;;4938733;29;20051;-88
2021/11/09 11:08:48;;;;;;;27.65;8.20;;;9.80;97.40;;;;;;4938455;29;20050;-87
2021/11/09 11:11:20;;;;;;;31.52;8.43;;;9.80;97.30;;;;;;4937572;29;20031;-89
2021/11/09 11:13:46;;;;;;;28.13;8.60;;;9.80;97.20;;;;;;4937434;29;20493;-85
2021/11/09 11:16:15;;;;;;;27.55;7.72;;;9.90;97.30;;;;;;4937776;29;20044;-94
2021/11/09 11:18:44;;;;;;;27.38;7.97;;;9.90;97.30;;;;;;4939457;29;20153;-88
2021/11/09 11:30:23;;;;;;;35.25;15.73;;;10.00;97.00;;;;;;5031594;28;20048;-87
2021/11/09 11:32:48;;;;;;;29.75;11.23;;;10.00;97.20;;;;;;5004531;28;20060;-87
2021/11/09 11:35:18;;;;;;;36.85;11.77;;;10.00;97.10;;;;;;5032028;28;20133;-86
2021/11/09 11:37:51;;;;;;;28.08;9.48;;;10.00;97.10;;;;;;5015579;28;20100;-86
2021/11/09 11:40:29;;;;;;;31.38;8.20;;;10.10;97.10;;;;;;5015266;28;20397;-86
2021/11/09 11:42:54;;;;;;;32.42;8.27;;;10.10;97.10;;;;;;5015159;28;20085;-85
2021/11/09 11:45:20;;;;;;;25.88;7.82;;;10.10;97.10;;;;;;5015431;28;20046;-87
2021/11/09 11:48:06;;;;;;;28.70;8.77;;;10.10;97.10;;;;;;5015572;28;20042;-86
2021/11/09 11:50:39;;;;;;;28.10;8.43;;;10.20;97.00;;;;;;5017492;28;20109;-86
2021/11/09 11:53:05;;;;;;;28.42;8.10;;;10.20;97.10;;;;;;5017751;28;20048;-86
2021/11/09 11:55:31;;;;;;;24.48;7.35;;;10.20;97.20;;;;;;5019626;28;20041;-86
2021/11/09 11:58:11;;;;;;;29.08;8.23;;;10.20;97.20;;;;;;5018393;28;20045;-86
2021/11/09 12:00:53;;;;;;;27.48;8.85;;;10.30;97.10;;;;;;5017396;28;20493;-85
2021/11/09 12:03:18;;;;;;;26.45;8.07;;;10.30;97.10;;;;;;5006121;28;20127;-86
2021/11/09 12:05:46;;;;;;;23.08;8.30;;;10.30;97.10;;;;;;5015000;28;20045;-86
2021/11/09 12:08:14;;;;;;;27.48;8.65;;;10.40;97.10;;;;;;5012929;28;20041;-86
2021/11/09 12:10:47;;;;;;;26.45;8.55;;;10.40;97.10;;;;;;5027461;28;20042;-86
2021/11/09 12:13:14;;;;;;;30.35;9.43;;;10.40;97.10;;;;;;5000336;28;20133;-87
2021/11/09 12:16:02;;;;;;;26.25;9.38;;;10.40;97.10;;;;;;5009330;28;20037;-86
2021/11/09 12:18:28;;;;;;;31.48;9.95;;;10.40;97.10;;;;;;5017986;28;20119;-85
2021/11/09 12:21:19;;;;;;;31.92;10.93;;;10.40;97.20;;;;;;5019096;28;20081;-86
2021/11/09 12:24:13;;;;;;;27.08;9.80;;;10.50;97.20;;;;;;5018952;28;20056;-84
2021/11/09 12:26:57;;;;;;;24.38;9.85;;;10.50;97.20;;;;;;5015861;28;20053;-84
2021/11/09 12:29:35;;;;;;;;;;;10.50;97.20;;;;;;4999539;28;20045;-86
2021/11/09 12:32:36;;;;;;;29.50;9.10;;;10.50;97.10;;;;;;5016828;28;19932;-87
2021/11/09 12:35:06;;;;;;;26.13;9.68;;;10.50;97.20;;;;;;5018791;28;20515;-85
2021/11/09 12:37:39;;;;;;;30.25;9.45;;;10.60;97.20;;;;;;5018989;28;20041;-88
2021/11/09 12:40:23;;;;;;;28.10;9.73;;;10.50;97.20;;;;;;5018296;28;20064;-85
2021/11/09 12:43:10;;;;;;;27.90;8.05;;;10.50;97.00;;;;;;5019375;28;20141;-85
2021/11/09 12:45:58;;;;;;;28.10;7.90;;;10.60;97.10;;;;;;5018489;28;20072;-84
2021/11/09 12:48:27;;;;;;;24.98;8.68;;;10.60;97.10;;;;;;4969927;28;20136;-85
2021/11/09 12:50:57;;;;;;;28.75;8.30;;;10.70;97.20;;;;;;5018725;28;20131;-86
2021/11/09 12:53:24;;;;;;;27.92;8.52;;;10.70;97.00;;;;;;5017680;28;20041;-88
2021/11/09 12:56:01;;;;;;;23.63;7.65;;;10.70;97.00;;;;;;5018859;28;20474;-86
2021/11/09 12:58:30;;;;;;;25.67;8.32;;;10.70;96.90;;;;;;5017881;28;20549;-89
2021/11/09 13:04:34;;;;;;;23.52;8.15;;;10.70;96.90;;;;;;5015927;28;20050;-86
2021/11/09 13:07:27;;;;;;;28.25;7.95;;;10.80;96.80;;;;;;5008323;28;20046;-87
2021/11/09 13:10:02;;;;;;;26.35;8.45;;;10.80;96.90;;;;;;5010812;28;20132;-85
2021/11/09 13:12:33;;;;;;;33.60;8.20;;;10.80;96.90;;;;;;5018394;28;20440;-86
2021/11/09 13:15:14;;;;;;;24.70;8.02;;;10.80;96.80;;;;;;5013081;28;20485;-86
2021/11/09 13:17:46;;;;;;;25.20;7.63;;;10.80;96.70;;;;;;5018060;28;20049;-85
2021/11/09 13:20:22;;;;;;;22.83;7.40;;;10.80;96.80;;;;;;5018166;28;20397;-92
2021/11/09 13:23:08;;;;;;;23.75;7.30;;;10.90;96.80;;;;;;5018583;28;20041;-87
2021/11/09 13:25:49;;;;;;;24.52;7.85;;;10.80;96.70;;;;;;5007430;28;20058;-88
2021/11/09 13:28:15;;;;;;;27.25;8.45;;;10.90;96.70;;;;;;5007643;28;20061;-88
2021/11/09 13:31:02;;;;;;;31.85;8.20;;;10.90;96.70;;;;;;5034543;28;20371;-89
2021/11/09 13:33:32;;;;;;;32.80;7.60;;;10.90;96.70;;;;;;5005111;28;20104;-89
2021/11/09 13:35:58;;;;;;;29.90;8.07;;;10.90;96.60;;;;;;4998312;28;20034;-89
2021/11/09 13:38:31;;;;;;;22.42;7.18;;;10.90;96.50;;;;;;5002082;28;20092;-88
2021/11/09 13:41:02;;;;;;;24.25;7.60;;;10.90;96.50;;;;;;5007363;28;20120;-89
2021/11/09 13:43:36;;;;;;;25.15;7.05;;;10.90;96.50;;;;;;4998743;28;20053;-87
2021/11/09 13:46:12;;;;;;;23.50;6.45;;;10.90;96.50;;;;;;5014606;28;20041;-88
2021/11/09 13:48:40;;;;;;;23.80;7.05;;;10.90;96.50;;;;;;5031947;28;20554;-88
2021/11/09 13:51:12;;;;;;;30.27;7.50;;;10.90;96.60;;;;;;5003157;28;20046;-88
2021/11/09 13:53:47;;;;;;;27.88;7.95;;;11.00;96.50;;;;;;5003784;28;20038;-88
2021/11/09 13:56:12;;;;;;;30.15;7.97;;;11.00;96.50;;;;;;5027673;28;20052;-88
2021/11/09 13:58:39;;;;;;;26.75;7.70;;;11.00;96.40;;;;;;5007445;28;20493;-91
2021/11/09 14:01:10;;;;;;;28.35;8.18;;;11.00;96.40;;;;;;5001081;28;20510;-90
2021/11/09 14:09:44;;;;;;;26.63;7.57;;;11.00;96.40;;;;;;4997021;28;20061;-88
2021/11/09 14:15:17;;;;;;;24.70;7.18;;;11.00;96.40;;;;;;4997612;28;20497;-87
2021/11/09 14:17:37;;;;;;;22.42;7.13;;;11.00;96.40;;;;;;4996624;28;20046;-87
2021/11/09 14:20:11;;;;;;;25.23;6.75;;;11.00;96.40;;;;;;4997173;28;20038;-87
2021/11/09 14:22:42;;;;;;;24.48;7.15;;;11.00;96.40;;;;;;4997326;28;20054;-87
2021/11/09 14:25:11;;;;;;;23.73;7.15;;;11.00;96.50;;;;;;4996373;28;20042;-86
2021/11/09 14:27:46;;;;;;;26.80;7.10;;;11.00;96.40;;;;;;4997177;28;20057;-87
2021/11/09 14:30:18;;;;;;;24.10;7.57;;;11.00;96.40;;;;;;4997110;28;20041;-88
2021/11/09 14:32:44;;;;;;;28.53;8.07;;;11.00;96.40;;;;;;4996525;28;20056;-86
2021/11/09 14:35:24;;;;;;;25.60;7.75;;;11.00;96.40;;;;;;4996719;28;20046;-87
2021/11/09 14:40:30;;;;;;;;;;;11.00;96.30;;;;;;4997367;28;20486;-86
2021/11/09 14:43:06;;;;;;;25.48;7.40;;;11.00;96.10;;;;;;4996916;28;19937;-87
2021/11/09 14:45:48;;;;;;;21.20;7.32;;;11.00;96.40;;;;;;4996276;28;20081;-88
2021/11/09 14:48:17;;;;;;;26.55;7.75;;;11.00;96.40;;;;;;4997126;28;20041;-88
2021/11/09 14:50:59;;;;;;;22.60;7.13;;;11.00;96.30;;;;;;4997156;28;20080;-87
2021/11/09 14:53:30;;;;;;;23.52;8.10;;;11.00;96.30;;;;;;4996006;28;20056;-87
2021/11/09 14:56:06;;;;;;;24.73;7.75;;;11.00;96.20;;;;;;4996174;28;20041;-86
2021/11/09 14:58:44;;;;;;;26.52;8.00;;;11.00;96.10;;;;;;4995760;28;20516;-87
2021/11/09 15:01:33;;;;;;;21.90;7.38;;;11.00;96.10;;;;;;4996281;28;20049;-86
2021/11/09 15:04:04;;;;;;;28.60;8.40;;;11.00;96.10;;;;;;4995747;28;20050;-86
2021/11/09 15:06:47;;;;;;;24.70;8.02;;;11.00;96.30;;;;;;4995745;28;20049;-87
2021/11/09 15:09:36;;;;;;;24.55;8.25;;;11.00;96.20;;;;;;4995197;28;20052;-87
2021/11/09 15:28:20;;;;;;;20.45;7.38;;;11.00;96.10;;;;;;4999746;28;20058;-87
2021/11/09 15:30:56;;;;;;;22.98;7.45;;;11.00;96.10;;;;;;5000511;28;20402;-87
2021/11/09 15:33:48;;;;;;;24.92;7.43;;;11.00;96.10;;;;;;5000604;28;20046;-87
2021/11/09 15:38:44;;;;;;;24.50;6.60;;;11.00;96.00;;;;;;5000553;28;20060;-87
2021/11/09 15:41:12;;;;;;;29.95;8.30;;;11.00;96.00;;;;;;4999446;28;20049;-87
2021/11/09 15:43:39;;;;;;;26.35;7.20;;;11.00;95.90;;;;;;5000003;28;20038;-87
2021/11/09 15:46:06;;;;;;;27.17;7.57;;;11.00;95.90;;;;;;4999830;28;20132;-88
2021/11/09 15:48:32;;;;;;;25.35;6.75;;;11.00;95.80;;;;;;4999787;28;20045;-87
2021/11/09 15:50:57;;;;;;;26.75;7.90;;;11.00;95.80;;;;;;4999744;28;20052;-87
2021/11/09 15:53:24;;;;;;;21.58;7.43;;;11.00;96.10;;;;;;4999996;28;20129;-86
2021/11/09 15:55:50;;;;;;;27.25;7.60;;;11.00;95.80;;;;;;4999223;28;20038;-86
2021/11/09 15:58:15;;;;;;;21.83;7.05;;;11.00;95.80;;;;;;4999662;28;20060;-87
2021/11/09 16:00:44;;;;;;;25.75;6.93;;;11.00;95.70;;;;;;4999806;28;20129;-87
2021/11/09 16:03:09;;;;;;;21.48;6.78;;;11.00;95.60;;;;;;4999240;28;20050;-86
2021/11/09 16:05:39;;;;;;;19.08;7.25;;;10.90;95.50;;;;;;5000000;28;20528;-88
2021/11/09 16:08:05;;;;;;;26.20;7.53;;;11.00;95.50;;;;;;4999808;28;20050;-88
2021/11/09 16:10:34;;;;;;;24.15;6.93;;;10.90;95.50;;;;;;4999352;28;20045;-86
2021/11/09 16:13:00;;;;;;;22.10;7.72;;;10.90;95.50;;;;;;4999315;28;20045;-86
2021/11/09 16:15:26;;;;;;;22.38;7.25;;;10.90;95.50;;;;;;4999669;28;20042;-86
2021/11/09 16:17:51;;;;;;;23.98;7.72;;;10.90;95.60;;;;;;4998705;28;20389;-86
2021/11/09 16:20:18;;;;;;;24.95;7.60;;;10.90;95.60;;;;;;4999470;28;20212;-86
2021/11/09 16:22:44;;;;;;;21.85;7.28;;;10.90;95.60;;;;;;4999392;28;20081;-87
2021/11/09 16:25:11;;;;;;;31.27;7.68;;;10.90;95.60;;;;;;4998137;28;20057;-87
2021/11/09 16:27:37;;;;;;;25.40;7.20;;;10.90;95.50;;;;;;4999460;28;20144;-87
2021/11/09 16:30:08;;;;;;;24.48;7.43;;;10.90;95.40;;;;;;4998709;28;20057;-88
2021/11/09 16:32:49;;;;;;;24.10;7.45;;;10.90;95.40;;;;;;5000134;28;20104;-87
2021/11/09 16:37:50;;;;;;;32.03;8.05;;;10.90;95.50;;;;;;5003643;28;20075;-86
2021/11/09 16:40:23;;;;;;;24.80;7.90;;;10.80;95.50;;;;;;5013795;28;20446;-89
2021/11/09 16:43:21;;;;;;;;;;;;;;;;;;;;;
2021/11/09 16:52:18;;;;;;;27.52;8.82;;;10.80;95.50;;;;;;5025334;28;20050;-90
2021/11/09 16:54:51;;;;;;;28.30;8.30;;;10.80;95.60;;;;;;4998968;28;20513;-88
2021/11/09 16:57:25;;;;;;;22.65;8.07;;;10.80;95.60;;;;;;5010768;28;20049;-87
2021/11/09 17:02:27;;;;;;;29.33;9.32;;;10.80;95.70;;;;;;5018452;28;20054;-87
2021/11/09 17:05:21;;;;;;;30.00;8.77;;;10.80;95.60;;;;;;4998979;28;20394;-86
2021/11/09 18:13:22;;;;;;;29.48;9.05;;;10.60;95.60;;;;;;4998073;28;20104;-84
2021/11/09 18:19:59;;;;;;;24.20;8.43;;;10.50;95.60;;;;;;5004029;28;20045;-85
2021/11/09 18:21:16;;;;;;;22.55;8.48;;;10.50;95.60;;;;;;5034647;28;20413;-84
2021/11/09 18:23:43;;;;;;;24.80;8.35;;;10.50;95.60;;;;;;5016312;28;20484;-85
2021/11/09 18:26:09;;;;;;;26.98;8.48;;;10.50;95.60;;;;;;5018439;28;20044;-84
2021/11/09 18:28:35;;;;;;;24.63;8.32;;;10.50;95.50;;;;;;5016811;28;20392;-84
2021/11/09 18:31:01;;;;;;;23.77;8.43;;;10.50;95.50;;;;;;5016166;28;20034;-84
2021/11/09 18:33:27;;;;;;;24.83;7.53;;;10.50;95.30;;;;;;5017213;28;20041;-84
2021/11/09 18:35:53;;;;;;;27.23;8.15;;;10.50;95.30;;;;;;5017389;28;20046;-84
2021/11/09 18:38:19;;;;;;;26.48;7.75;;;10.50;95.30;;;;;;5016155;28;20463;-84
2021/11/09 18:40:46;;;;;;;24.75;7.93;;;10.50;95.20;;;;;;5029222;28;20036;-84
2021/11/09 18:43:15;;;;;;;25.65;8.18;;;10.50;95.20;;;;;;5021995;28;20071;-84
2021/11/09 18:45:42;;;;;;;31.88;8.80;;;10.50;95.20;;;;;;4996432;28;20088;-84
2021/11/09 18:48:09;;;;;;;24.98;7.82;;;10.50;95.10;;;;;;5015615;28;20521;-84
2021/11/09 18:50:38;;;;;;;29.17;7.95;;;10.50;95.10;;;;;;5008281;28;20096;-84
2021/11/09 18:53:04;;;;;;;23.27;7.28;;;10.50;95.10;;;;;;4997211;28;20072;-84
2021/11/09 18:55:30;;;;;;;27.35;8.23;;;10.50;95.20;;;;;;5030565;28;20045;-84
2021/11/09 18:57:57;;;;;;;24.85;7.75;;;10.50;95.20;;;;;;5035635;28;20176;-84
2021/11/09 19:00:23;;;;;;;27.27;7.15;;;10.50;95.20;;;;;;5031739;28;20033;-85
2021/11/09 19:02:50;;;;;;;26.30;7.95;;;10.50;95.10;;;;;;5016945;28;20052;-86
2021/11/09 19:05:19;;;;;;;26.13;7.07;;;10.50;95.10;;;;;;5016068;28;20041;-84
2021/11/09 19:07:46;;;;;;;22.40;6.68;;;10.50;95.10;;;;;;5015009;28;20165;-84
2021/11/09 19:10:12;;;;;;;20.17;6.45;;;10.50;95.00;;;;;;5017058;28;20091;-84
2021/11/09 19:12:39;;;;;;;20.77;6.75;;;10.50;95.00;;;;;;5033008;28;20088;-84
2021/11/09 19:15:08;;;;;;;17.95;6.50;;;10.50;95.00;;;;;;5036288;28;20072;-87
2021/11/09 19:17:34;;;;;;;27.15;6.68;;;10.50;95.10;;;;;;5036685;28;20049;-88
2021/11/09 19:19:59;;;;;;;21.98;7.22;;;10.50;95.40;;;;;;5022018;28;20042;-87
2021/11/09 19:22:25;;;;;;;22.77;7.00;;;10.50;95.10;;;;;;5033282;28;20076;-85
2021/11/09 19:24:51;;;;;;;24.50;7.00;;;10.50;95.10;;;;;;5017058;28;20045;-84
2021/11/09 19:27:17;;;;;;;24.33;6.88;;;10.50;95.10;;;;;;5030770;28;20053;-84
2021/11/09 19:29:43;;;;;;;19.80;6.78;;;10.50;95.10;;;;;;5036402;28;20052;-85
2021/11/09 19:32:09;;;;;;;23.35;7.03;;;10.50;95.00;;;;;;5032937;28;20045;-84
2021/11/09 19:34:34;;;;;;;20.40;6.82;;;10.50;95.00;;;;;;5016081;28;20045;-84
2021/11/09 19:37:00;;;;;;;20.65;6.80;;;10.50;95.10;;;;;;5016270;28;20046;-84
2021/11/09 19:39:26;;;;;;;23.30;7.07;;;10.50;95.00;;;;;;5016867;28;20092;-85
2021/11/09 19:41:52;;;;;;;23.88;6.63;;;10.50;95.00;;;;;;5015747;28;20053;-84
2021/11/09 19:44:18;;;;;;;20.90;6.13;;;10.50;94.90;;;;;;5016291;28;20087;-84
2021/11/09 19:46:47;;;;;;;23.23;7.75;;;10.50;94.90;;;;;;5017029;28;20041;-84
2021/11/09 19:49:14;;;;;;;24.67;6.82;;;10.50;94.90;;;;;;5015594;28;20084;-85
2021/11/09 19:51:43;;;;;;;23.77;7.18;;;10.50;94.90;;;;;;5019551;28;20108;-84
2021/11/09 19:54:13;;;;;;;20.80;6.45;;;10.50;94.90;;;;;;5034706;28;20040;-83
2021/11/09 19:56:44;;;;;;;23.15;6.38;;;10.50;94.90;;;;;;5036235;28;20070;-84
2021/11/09 19:59:13;;;;;;;19.30;6.40;;;10.50;94.90;;;;;;5035634;28;20048;-87
2021/11/09 20:01:40;;;;;;;21.75;7.00;;;10.50;95.10;;;;;;5035340;28;20128;-86
2021/11/09 20:04:06;;;;;;;25.95;6.70;;;10.50;95.20;;;;;;5035508;28;20511;-84
2021/11/09 20:06:33;;;;;;;16.63;6.22;;;10.40;95.10;;;;;;5035749;28;20044;-84
2021/11/09 20:09:00;;;;;;;24.63;6.80;;;10.40;95.30;;;;;;5035147;28;20045;-84
2021/11/09 20:11:27;;;;;;;19.80;6.30;;;10.50;95.20;;;;;;5038192;28;20159;-85
2021/11/09 20:13:55;;;;;;;24.63;6.68;;;10.40;95.20;;;;;;5039833;28;20049;-85
2021/11/09 20:16:22;;;;;;;19.15;6.43;;;10.50;95.20;;;;;;5038806;28;20128;-84
2021/11/09 20:18:48;;;;;;;23.00;7.00;;;10.50;95.20;;;;;;5027456;28;20057;-84
2021/11/09 20:21:16;;;;;;;21.65;6.70;;;10.40;95.10;;;;;;5007100;28;20478;-84
2021/11/09 20:23:45;;;;;;;21.52;6.43;;;10.40;95.00;;;;;;4999544;28;20069;-85
2021/11/09 20:26:14;;;;;;;19.92;6.78;;;10.40;95.00;;;;;;4999606;28;20378;-84
2021/11/09 20:28:40;;;;;;;25.25;6.47;;;10.40;95.10;;;;;;5000002;28;20482;-88
2021/11/09 20:31:07;;;;;;;22.70;7.47;;;10.40;95.10;;;;;;5020806;28;20033;-85
2021/11/09 20:33:38;;;;;;;19.38;6.68;;;10.40;95.20;;;;;;5023997;28;20050;-84
2021/11/09 20:36:05;;;;;;;21.38;7.15;;;10.40;95.10;;;;;;5004239;28;20084;-84
2021/11/09 20:38:35;;;;;;;20.00;6.70;;;10.40;95.10;;;;;;5019846;28;20129;-83
2021/11/09 20:41:05;;;;;;;21.90;6.82;;;10.40;95.10;;;;;;5038005;28;20048;-84
2021/11/09 20:43:31;;;;;;;29.05;9.20;;;10.40;95.10;;;;;;5020464;28;20046;-85
2021/11/09 20:45:57;;;;;;;31.90;10.07;;;10.40;95.00;;;;;;5021049;28;20084;-84